createdAt,value
2022-11-07T00:02:14.078Z,11.70
2022-11-07T00:04:43.297Z,11.70
2022-11-07T00:07:11.875Z,11.70
2022-11-07T00:09:41.355Z,11.70
2022-11-07T00:12:10.313Z,11.70
2022-11-07T00:14:39.085Z,11.70
2022-11-07T00:17:09.053Z,11.70
2022-11-07T00:19:37.664Z,11.70
2022-11-07T00:22:05.768Z,11.70
2022-11-07T00:24:34.397Z,11.70
2022-11-07T00:27:04.098Z,11.80
2022-11-07T00:29:32.300Z,11.80
2022-11-07T00:32:01.080Z,11.80
2022-11-07T00:34:29.250Z,11.80
2022-11-07T00:36:57.865Z,11.80
2022-11-07T00:39:26.474Z,11.80
2022-11-07T00:41:54.569Z,11.80
2022-11-07T00:44:24.574Z,11.80
2022-11-07T00:46:52.664Z,11.80
2022-11-07T00:49:21.291Z,11.80
2022-11-07T00:51:49.433Z,11.90
2022-11-07T00:54:17.577Z,11.90
2022-11-07T00:56:45.763Z,11.90
2022-11-07T00:59:13.915Z,11.90
2022-11-07T01:01:43.777Z,11.90
2022-11-07T01:04:31.984Z,11.90
2022-11-07T01:07:00.618Z,11.90
2022-11-07T01:09:28.700Z,11.90
2022-11-07T01:11:57.291Z,11.90
2022-11-07T01:14:25.721Z,11.90
2022-11-07T01:16:55.766Z,12.00
2022-11-07T01:19:23.970Z,12.00
2022-11-07T01:21:52.588Z,12.00
2022-11-07T01:24:20.687Z,12.00
2022-11-07T01:26:49.485Z,12.00
2022-11-07T01:29:18.438Z,12.00
2022-11-07T01:31:47.384Z,12.00
2022-11-07T01:34:18.224Z,12.00
2022-11-07T01:36:46.696Z,12.10
2022-11-07T01:39:15.397Z,12.00
2022-11-07T01:41:44.080Z,12.10
2022-11-07T01:44:51.708Z,12.10
2022-11-07T01:47:20.115Z,12.10
2022-11-07T01:49:50.345Z,12.10
2022-11-07T01:52:22.319Z,12.10
2022-11-07T01:54:58.211Z,12.10
2022-11-07T01:57:31.133Z,12.10
2022-11-07T02:00:03.011Z,12.20
2022-11-07T02:02:31.898Z,12.20
2022-11-07T02:05:03.860Z,12.20
2022-11-07T02:07:32.662Z,12.20
2022-11-07T02:10:01.748Z,12.20
2022-11-07T02:12:30.399Z,12.20
2022-11-07T02:14:59.253Z,12.20
2022-11-07T02:17:27.928Z,12.20
2022-11-07T02:19:57.606Z,12.20
2022-11-07T02:22:36.525Z,12.20
2022-11-07T02:25:08.947Z,12.30
2022-11-07T02:27:39.781Z,12.20
2022-11-07T02:30:11.836Z,12.30
2022-11-07T02:32:40.163Z,12.30
2022-11-07T02:35:29.748Z,12.30
2022-11-07T02:37:58.677Z,12.30
2022-11-07T02:40:29.801Z,12.30
2022-11-07T02:42:58.983Z,12.30
2022-11-07T02:45:29.851Z,12.30
2022-11-07T02:47:58.634Z,12.30
2022-11-07T02:50:26.972Z,12.30
2022-11-07T02:52:55.700Z,12.40
2022-11-07T02:55:23.824Z,12.40
2022-11-07T02:57:53.821Z,12.40
2022-11-07T03:00:22.057Z,12.40
2022-11-07T03:02:51.037Z,12.40
2022-11-07T03:05:21.524Z,12.40
2022-11-07T03:07:50.825Z,12.40
2022-11-07T03:10:20.107Z,12.40
2022-11-07T03:12:48.317Z,12.40
2022-11-07T03:15:18.347Z,12.50
2022-11-07T03:17:46.980Z,12.50
2022-11-07T03:20:15.179Z,12.50
2022-11-07T03:22:43.786Z,12.50
2022-11-07T03:25:11.964Z,12.50
2022-11-07T03:27:48.634Z,12.50
2022-11-07T03:30:18.504Z,12.50
2022-11-07T03:32:47.278Z,12.50
2022-11-07T03:35:15.586Z,12.60
2022-11-07T03:37:47.069Z,12.50
2022-11-07T03:40:16.153Z,12.60
2022-11-07T03:42:45.823Z,12.60
2022-11-07T03:45:15.496Z,12.60
2022-11-07T03:47:46.893Z,12.60
2022-11-07T03:50:17.667Z,12.60
2022-11-07T03:52:46.850Z,12.60
2022-11-07T03:55:18.132Z,12.70
2022-11-07T03:57:47.339Z,12.70
2022-11-07T04:00:17.633Z,12.70
2022-11-07T04:02:47.816Z,12.70
2022-11-07T04:05:16.080Z,12.70
2022-11-07T04:07:44.742Z,12.70
2022-11-07T04:10:13.865Z,12.70
2022-11-07T04:12:59.901Z,12.70
2022-11-07T04:15:45.426Z,12.70
2022-11-07T04:18:15.475Z,12.70
2022-11-07T04:20:43.630Z,12.70
2022-11-07T04:23:11.920Z,12.70
2022-11-07T04:25:57.342Z,12.70
2022-11-07T04:28:25.528Z,12.70
2022-11-07T04:30:53.649Z,12.70
2022-11-07T04:33:23.682Z,12.70
2022-11-07T04:35:51.851Z,12.70
2022-11-07T04:38:23.826Z,12.70
2022-11-07T04:40:59.243Z,12.70
2022-11-07T04:43:28.572Z,12.70
2022-11-07T04:45:57.195Z,12.70
2022-11-07T04:48:26.690Z,12.70
2022-11-07T04:50:55.400Z,12.70
2022-11-07T04:53:23.981Z,12.70
2022-11-07T04:55:52.146Z,12.60
2022-11-07T04:58:20.703Z,12.60
2022-11-07T05:00:48.817Z,12.60
2022-11-07T05:03:17.925Z,12.60
2022-11-07T05:05:47.702Z,12.60
2022-11-07T05:08:15.858Z,12.60
2022-11-07T05:10:44.468Z,12.70
2022-11-07T05:13:12.716Z,12.60
2022-11-07T05:15:41.978Z,12.70
2022-11-07T05:18:11.401Z,12.70
2022-11-07T05:20:40.867Z,12.70
2022-11-07T05:23:15.923Z,12.70
2022-11-07T05:25:45.986Z,12.70
2022-11-07T05:28:16.630Z,12.70
2022-11-07T05:30:46.343Z,12.70
2022-11-07T05:33:17.424Z,12.70
2022-11-07T05:35:47.069Z,12.70
2022-11-07T05:38:16.566Z,12.70
2022-11-07T05:40:45.187Z,12.70
2022-11-07T05:43:15.584Z,12.70
2022-11-07T05:45:44.477Z,12.70
2022-11-07T05:48:14.344Z,12.70
2022-11-07T05:50:42.591Z,12.70
2022-11-07T05:53:11.342Z,12.70
2022-11-07T05:55:41.378Z,12.70
2022-11-07T05:58:11.250Z,12.70
2022-11-07T06:00:40.387Z,12.70
2022-11-07T06:03:09.680Z,12.70
2022-11-07T06:05:38.635Z,12.70
2022-11-07T06:08:07.611Z,12.70
2022-11-07T06:10:36.725Z,12.60
2022-11-07T06:13:08.527Z,12.70
2022-11-07T06:15:38.237Z,12.70
2022-11-07T06:18:08.360Z,12.60
2022-11-07T06:20:36.656Z,12.60
2022-11-07T06:23:06.912Z,12.60
2022-11-07T06:25:36.730Z,12.60
2022-11-07T06:28:08.889Z,12.60
2022-11-07T06:30:38.333Z,12.60
2022-11-07T06:33:08.962Z,12.60
2022-11-07T06:35:37.441Z,12.60
2022-11-07T06:38:07.500Z,12.60
2022-11-07T06:40:35.902Z,12.60
2022-11-07T06:43:09.699Z,12.60
2022-11-07T06:45:37.987Z,12.60
2022-11-07T06:48:07.290Z,12.50
2022-11-07T06:50:36.056Z,12.50
2022-11-07T06:53:05.224Z,12.50
2022-11-07T06:55:35.101Z,12.50
2022-11-07T06:58:03.807Z,12.50
2022-11-07T07:00:36.289Z,12.50
2022-11-07T07:03:05.473Z,12.50
2022-11-07T07:05:34.267Z,12.50
2022-11-07T07:08:02.953Z,12.50
2022-11-07T07:10:31.579Z,12.50
2022-11-07T07:13:02.247Z,12.50
2022-11-07T07:15:42.099Z,12.50
2022-11-07T07:18:19.451Z,12.50
2022-11-07T07:20:47.756Z,12.50
2022-11-07T07:23:16.925Z,12.50
2022-11-07T07:25:45.789Z,12.50
2022-11-07T07:28:14.421Z,12.50
2022-11-07T07:30:47.145Z,12.50
2022-11-07T07:33:19.072Z,12.60
2022-11-07T07:35:47.496Z,12.50
2022-11-07T07:38:16.229Z,12.60
2022-11-07T07:40:44.333Z,12.50
2022-11-07T07:43:13.188Z,12.60
2022-11-07T07:45:42.044Z,12.60
2022-11-07T07:48:10.317Z,12.60
2022-11-07T07:50:40.383Z,12.60
2022-11-07T07:53:09.354Z,12.60
2022-11-07T07:55:38.191Z,12.60
2022-11-07T07:58:06.301Z,12.60
2022-11-07T08:00:34.789Z,12.70
2022-11-07T08:03:04.127Z,12.70
2022-11-07T08:05:32.356Z,12.70
2022-11-07T08:08:01.840Z,12.70
2022-11-07T08:10:45.715Z,12.70
2022-11-07T08:13:14.226Z,12.80
2022-11-07T08:15:43.051Z,12.80
2022-11-07T08:18:11.184Z,12.80
2022-11-07T08:20:39.784Z,12.80
2022-11-07T08:23:15.980Z,12.90
2022-11-07T08:25:45.241Z,12.90
2022-11-07T08:28:13.882Z,12.90
2022-11-07T08:30:42.517Z,12.90
2022-11-07T08:33:10.710Z,12.90
2022-11-07T08:35:42.496Z,13.00
2022-11-07T08:38:12.180Z,12.90
2022-11-07T08:40:40.829Z,13.00
2022-11-07T08:43:08.932Z,13.00
2022-11-07T08:45:37.597Z,13.10
2022-11-07T08:48:06.173Z,13.10
2022-11-07T08:50:35.018Z,13.10
2022-11-07T08:53:03.774Z,13.10
2022-11-07T08:55:33.523Z,13.20
2022-11-07T08:58:03.180Z,13.20
2022-11-07T09:00:32.273Z,13.30
2022-11-07T09:03:43.612Z,13.30
2022-11-07T09:05:51.611Z,13.30
2022-11-07T09:08:20.220Z,13.30
2022-11-07T09:10:50.276Z,13.40
2022-11-07T09:13:20.705Z,13.40
2022-11-07T09:15:51.881Z,13.40
2022-11-07T09:18:20.481Z,13.50
2022-11-07T09:20:49.125Z,13.50
2022-11-07T09:23:17.655Z,13.60
2022-11-07T09:25:46.784Z,13.60
2022-11-07T09:28:17.065Z,13.60
2022-11-07T09:30:45.454Z,13.70
2022-11-07T09:33:14.404Z,13.70
2022-11-07T09:35:42.730Z,13.70
2022-11-07T09:38:11.328Z,13.80
2022-11-07T09:40:46.325Z,13.80
2022-11-07T09:43:34.782Z,13.90
2022-11-07T09:46:10.504Z,13.90
2022-11-07T09:48:45.093Z,13.90
2022-11-07T09:51:27.809Z,14.00
2022-11-07T09:54:01.530Z,14.10
2022-11-07T09:56:32.255Z,14.10
2022-11-07T09:59:13.760Z,14.10
2022-11-07T10:01:42.746Z,14.20
2022-11-07T10:04:25.762Z,14.20
2022-11-07T10:07:00.014Z,14.30
2022-11-07T10:09:36.475Z,14.30
2022-11-07T10:12:18.335Z,14.40
2022-11-07T10:14:55.174Z,14.50
2022-11-07T10:17:32.191Z,14.50
2022-11-07T10:20:11.104Z,14.60
2022-11-07T10:22:51.721Z,14.60
2022-11-07T10:25:28.759Z,14.60
2022-11-07T10:28:17.191Z,14.70
2022-11-07T10:30:50.657Z,14.70
2022-11-07T10:33:31.485Z,14.80
2022-11-07T10:36:06.150Z,14.80
2022-11-07T10:38:36.738Z,14.80
2022-11-07T10:41:04.908Z,14.90
2022-11-07T10:43:35.752Z,14.90
2022-11-07T10:46:08.714Z,14.90
2022-11-07T10:48:36.824Z,15.00
2022-11-07T10:51:05.855Z,15.00
2022-11-07T10:53:45.086Z,15.10
2022-11-07T10:56:15.113Z,15.10
2022-11-07T10:58:47.694Z,15.10
2022-11-07T11:01:25.596Z,15.20
2022-11-07T11:03:55.516Z,15.30
2022-11-07T11:06:29.071Z,15.30
2022-11-07T11:08:58.058Z,15.40
2022-11-07T11:11:30.641Z,15.50
2022-11-07T11:14:07.839Z,15.60
2022-11-07T11:16:40.449Z,15.70
2022-11-07T11:19:20.128Z,15.80
2022-11-07T11:21:51.022Z,15.80
2022-11-07T11:24:32.411Z,15.90
2022-11-07T11:27:05.472Z,15.90
2022-11-07T11:29:40.613Z,15.90
2022-11-07T11:32:21.439Z,16.00
2022-11-07T11:34:58.424Z,16.10
2022-11-07T11:37:27.798Z,16.20
2022-11-07T11:40:12.771Z,16.30
2022-11-07T11:42:53.022Z,16.40
2022-11-07T11:45:32.476Z,16.50
2022-11-07T11:48:08.699Z,16.60
2022-11-07T11:50:44.771Z,16.70
2022-11-07T11:53:19.398Z,16.80
2022-11-07T11:55:54.793Z,16.90
2022-11-07T11:58:33.371Z,16.90
2022-11-07T12:01:09.689Z,16.90
2022-11-07T12:04:17.063Z,16.90
2022-11-07T12:06:47.111Z,16.90
2022-11-07T12:09:30.381Z,16.90
2022-11-07T12:12:14.349Z,16.90
2022-11-07T12:15:03.601Z,16.90
2022-11-07T12:17:42.938Z,16.90
2022-11-07T12:20:20.883Z,17.00
2022-11-07T12:23:01.625Z,17.00
2022-11-07T12:25:33.523Z,17.10
2022-11-07T12:28:12.282Z,17.10
2022-11-07T12:30:51.085Z,17.10
2022-11-07T12:33:29.664Z,17.10
2022-11-07T12:36:04.758Z,17.10
2022-11-07T12:38:59.450Z,17.10
2022-11-07T12:41:41.009Z,17.10
2022-11-07T12:44:28.728Z,17.00
2022-11-07T12:47:00.168Z,17.00
2022-11-07T12:49:46.106Z,17.00
2022-11-07T12:52:37.527Z,17.10
2022-11-07T12:55:17.956Z,17.10
2022-11-07T12:57:48.422Z,17.10
2022-11-07T13:00:24.683Z,17.10
2022-11-07T13:03:23.855Z,17.10
2022-11-07T13:06:04.589Z,17.10
2022-11-07T13:08:38.195Z,17.10
2022-11-07T13:11:14.074Z,17.10
2022-11-07T13:13:54.486Z,17.10
2022-11-07T13:16:27.299Z,17.00
2022-11-07T13:18:56.088Z,17.00
2022-11-07T13:21:24.384Z,17.00
2022-11-07T13:23:54.487Z,16.90
2022-11-07T13:26:46.990Z,17.30
2022-11-07T13:29:27.287Z,16.80
2022-11-07T13:32:09.118Z,16.80
2022-11-07T13:34:53.179Z,16.80
2022-11-07T13:37:24.313Z,16.70
2022-11-07T13:40:00.854Z,16.70
2022-11-07T13:42:31.474Z,16.70
2022-11-07T13:45:09.105Z,16.70
2022-11-07T13:47:43.120Z,16.60
2022-11-07T13:50:20.804Z,16.60
2022-11-07T13:52:59.669Z,16.60
2022-11-07T13:55:34.660Z,16.50
2022-11-07T13:58:07.974Z,16.50
2022-11-07T14:00:36.676Z,16.50
2022-11-07T14:03:04.846Z,16.40
2022-11-07T14:05:35.570Z,16.40
2022-11-07T14:08:06.918Z,16.40
2022-11-07T14:10:44.088Z,16.40
2022-11-07T14:13:14.083Z,16.40
2022-11-07T14:15:48.533Z,16.40
2022-11-07T14:18:17.963Z,16.40
2022-11-07T14:20:51.374Z,16.40
2022-11-07T14:23:23.254Z,16.40
2022-11-07T14:26:01.220Z,16.40
2022-11-07T14:28:35.975Z,16.40
2022-11-07T14:31:08.928Z,16.40
2022-11-07T14:33:37.520Z,16.40
2022-11-07T14:36:07.081Z,16.40
2022-11-07T14:38:36.992Z,16.40
2022-11-07T14:41:06.897Z,16.50
2022-11-07T14:43:35.718Z,16.50
2022-11-07T14:46:12.430Z,16.50
2022-11-07T14:48:43.065Z,16.50
2022-11-07T14:51:14.148Z,16.50
2022-11-07T14:53:51.216Z,16.50
2022-11-07T14:56:24.673Z,16.50
2022-11-07T14:58:53.067Z,16.50
2022-11-07T15:01:30.606Z,16.50
2022-11-07T15:04:02.136Z,16.50
2022-11-07T15:06:36.695Z,16.50
2022-11-07T15:09:07.664Z,16.50
2022-11-07T15:11:38.990Z,16.50
2022-11-07T15:14:22.165Z,16.50
2022-11-07T15:16:51.663Z,16.50
2022-11-07T15:19:22.972Z,16.50
2022-11-07T15:21:56.474Z,16.40
2022-11-07T15:24:39.067Z,16.40
2022-11-07T15:27:21.757Z,16.40
2022-11-07T15:29:54.722Z,16.30
2022-11-07T15:32:24.971Z,16.30
2022-11-07T15:37:54.167Z,16.20
2022-11-07T15:40:24.245Z,16.20
2022-11-07T15:42:54.468Z,16.20
2022-11-07T15:45:23.301Z,16.10
2022-11-07T15:47:52.816Z,16.00
2022-11-07T15:50:23.329Z,16.00
2022-11-07T15:52:52.732Z,15.90
2022-11-07T15:55:22.982Z,15.90
2022-11-07T15:57:55.035Z,15.80
2022-11-07T16:00:25.257Z,15.80
2022-11-07T16:02:54.576Z,15.80
2022-11-07T16:05:22.749Z,15.70
2022-11-07T16:07:51.506Z,15.70
2022-11-07T16:10:22.762Z,15.60
2022-11-07T16:12:50.990Z,15.60
2022-11-07T16:15:23.597Z,15.60
2022-11-07T16:17:51.843Z,15.50
2022-11-07T16:20:21.683Z,15.50
2022-11-07T16:22:51.364Z,15.50
2022-11-07T16:25:32.397Z,15.40
2022-11-07T16:28:03.285Z,15.40
2022-11-07T16:30:34.222Z,15.40
2022-11-07T16:33:02.776Z,15.40
2022-11-07T16:35:31.619Z,15.30
2022-11-07T16:38:00.139Z,15.30
2022-11-07T16:40:28.745Z,15.30
2022-11-07T16:42:56.831Z,15.30
2022-11-07T16:45:25.356Z,15.20
2022-11-07T16:47:54.825Z,15.20
2022-11-07T16:50:23.015Z,15.20
2022-11-07T16:52:51.091Z,15.20
2022-11-07T16:55:21.372Z,15.20
2022-11-07T16:57:50.147Z,15.10
2022-11-07T17:00:21.249Z,15.10
2022-11-07T17:02:50.052Z,15.10
2022-11-07T17:05:19.644Z,15.10
2022-11-07T17:07:49.266Z,15.00
2022-11-07T17:10:19.406Z,15.00
2022-11-07T17:12:47.501Z,14.90
2022-11-07T17:15:15.593Z,14.90
2022-11-07T17:17:44.345Z,14.80
2022-11-07T17:20:49.450Z,14.80
2022-11-07T17:23:12.262Z,14.80
2022-11-07T17:25:40.967Z,14.70
2022-11-07T17:28:10.087Z,14.70
2022-11-07T17:30:38.128Z,14.70
2022-11-07T17:33:06.231Z,14.60
2022-11-07T17:35:37.178Z,14.60
2022-11-07T17:38:05.576Z,14.60
2022-11-07T17:40:35.768Z,14.60
2022-11-07T17:43:04.432Z,14.50
2022-11-07T17:45:33.103Z,14.50
2022-11-07T17:48:01.241Z,14.50
2022-11-07T17:50:29.930Z,14.50
2022-11-07T17:52:59.426Z,14.50
2022-11-07T17:55:27.990Z,14.50
2022-11-07T17:57:56.478Z,14.50
2022-11-07T18:00:27.625Z,14.50
2022-11-07T18:02:55.928Z,14.50
2022-11-07T18:05:30.118Z,14.50
2022-11-07T18:08:03.025Z,14.50
2022-11-07T18:10:31.092Z,14.50
2022-11-07T18:12:59.678Z,14.50
2022-11-07T18:15:28.818Z,14.50
2022-11-07T18:17:57.455Z,14.40
2022-11-07T18:20:26.025Z,14.50
2022-11-07T18:22:54.229Z,14.50
2022-11-07T18:25:23.717Z,14.40
2022-11-07T18:27:51.806Z,14.40
2022-11-07T18:30:19.988Z,14.40
2022-11-07T18:32:48.108Z,14.40
2022-11-07T18:35:16.460Z,14.40
2022-11-07T18:37:44.640Z,14.40
2022-11-07T18:40:13.975Z,14.40
2022-11-07T18:42:46.413Z,14.40
2022-11-07T18:45:15.677Z,14.40
2022-11-07T18:47:43.893Z,14.40
2022-11-07T18:50:13.012Z,14.40
2022-11-07T18:52:41.464Z,14.40
2022-11-07T18:55:11.112Z,14.40
2022-11-07T18:57:39.709Z,14.40
2022-11-07T19:00:13.605Z,14.40
2022-11-07T19:02:42.745Z,14.40
2022-11-07T19:05:10.934Z,14.50
2022-11-07T19:07:43.354Z,14.40
2022-11-07T19:10:12.703Z,14.50
2022-11-07T19:12:41.211Z,14.50
2022-11-07T19:15:12.492Z,14.50
2022-11-07T19:17:40.896Z,14.50
2022-11-07T19:20:10.274Z,14.50
2022-11-07T19:22:38.441Z,14.50
2022-11-07T19:25:07.127Z,14.50
2022-11-07T19:27:35.883Z,14.50
2022-11-07T19:30:04.610Z,14.60
2022-11-07T19:32:34.681Z,14.60
2022-11-07T19:35:02.732Z,14.60
2022-11-07T19:37:31.278Z,14.60
2022-11-07T19:39:59.357Z,14.60
2022-11-07T19:42:28.716Z,14.60
2022-11-07T19:44:57.348Z,14.60
2022-11-07T19:47:25.478Z,14.60
2022-11-07T19:49:55.550Z,14.60
2022-11-07T19:52:23.734Z,14.60
2022-11-07T19:54:52.866Z,14.60
2022-11-07T19:57:20.927Z,14.60
2022-11-07T19:59:49.077Z,14.60
2022-11-07T20:02:35.517Z,14.60
2022-11-07T20:05:07.929Z,14.60
2022-11-07T20:07:37.179Z,14.60
2022-11-07T20:10:05.816Z,14.70
2022-11-07T20:12:34.230Z,14.70
2022-11-07T20:15:02.272Z,14.70
2022-11-07T20:17:30.468Z,14.70
2022-11-07T20:20:02.716Z,14.70
2022-11-07T20:22:35.513Z,14.70
2022-11-07T20:25:03.746Z,14.70
2022-11-07T20:27:33.083Z,14.70
2022-11-07T20:30:02.117Z,14.70
2022-11-07T20:32:33.493Z,14.70
2022-11-07T20:35:01.622Z,14.70
2022-11-07T20:37:30.555Z,14.70
2022-11-07T20:40:00.123Z,14.70
2022-11-07T20:42:28.264Z,14.60
2022-11-07T20:44:56.346Z,14.70
2022-11-07T20:47:25.082Z,14.60
2022-11-07T20:49:53.665Z,14.60
2022-11-07T20:52:21.769Z,14.60
2022-11-07T20:54:49.958Z,14.60
2022-11-07T20:57:19.550Z,14.60
2022-11-07T20:59:47.704Z,14.60
2022-11-07T21:02:16.387Z,14.60
2022-11-07T21:05:11.257Z,14.60
2022-11-07T21:07:32.859Z,14.60
2022-11-07T21:10:00.980Z,14.60
2022-11-07T21:12:30.569Z,14.50
2022-11-07T21:14:58.654Z,14.50
2022-11-07T21:17:27.254Z,14.50
2022-11-07T21:19:55.575Z,14.50
2022-11-07T21:22:29.025Z,14.50
2022-11-07T21:24:57.637Z,14.40
2022-11-07T21:27:26.266Z,14.50
2022-11-07T21:29:55.830Z,14.40
2022-11-07T21:32:23.906Z,14.40
2022-11-07T21:34:52.553Z,14.40
2022-11-07T21:37:20.648Z,14.40
2022-11-07T21:39:49.297Z,14.40
2022-11-07T21:42:18.191Z,14.40
2022-11-07T21:44:46.831Z,14.40
2022-11-07T21:47:16.300Z,14.40
2022-11-07T21:49:44.385Z,14.40
2022-11-07T21:52:12.506Z,14.40
2022-11-07T21:54:40.665Z,14.30
2022-11-07T21:57:08.802Z,14.30
2022-11-07T21:59:37.143Z,14.30
2022-11-07T22:02:05.797Z,14.30
2022-11-07T22:04:36.767Z,14.30
2022-11-07T22:07:05.355Z,14.30
2022-11-07T22:09:33.479Z,14.30
2022-11-07T22:12:01.583Z,14.30
2022-11-07T22:14:29.743Z,14.20
2022-11-07T22:16:57.921Z,14.20
2022-11-07T22:19:27.938Z,14.20
2022-11-07T22:21:57.426Z,14.20
2022-11-07T22:24:27.672Z,14.20
2022-11-07T22:26:57.664Z,14.20
2022-11-07T22:29:25.738Z,14.20
2022-11-07T22:31:54.279Z,14.10
2022-11-07T22:34:24.034Z,14.10
2022-11-07T22:36:52.113Z,14.10
2022-11-07T22:39:22.392Z,14.10
2022-11-07T22:41:50.562Z,14.10
2022-11-07T22:44:19.128Z,14.10
2022-11-07T22:46:48.223Z,14.10
2022-11-07T22:49:16.435Z,14.10
2022-11-07T22:51:44.521Z,14.00
2022-11-07T22:54:14.399Z,14.00
2022-11-07T22:56:44.321Z,14.00
2022-11-07T22:59:12.670Z,14.00
2022-11-07T23:01:42.915Z,14.00
2022-11-07T23:04:14.969Z,14.00
2022-11-07T23:06:43.759Z,14.00
2022-11-07T23:09:15.513Z,13.90
2022-11-07T23:11:47.626Z,13.90
2022-11-07T23:14:18.311Z,13.90
2022-11-07T23:16:48.864Z,13.90
2022-11-07T23:19:19.383Z,13.90
2022-11-07T23:21:47.581Z,13.90
2022-11-07T23:24:16.529Z,13.80
2022-11-07T23:26:46.032Z,13.80
2022-11-07T23:29:16.801Z,13.80
2022-11-07T23:31:46.870Z,13.80
2022-11-07T23:34:16.512Z,13.80
2022-11-07T23:36:45.064Z,13.80
2022-11-07T23:39:17.104Z,13.80
2022-11-07T23:41:47.178Z,13.80
2022-11-07T23:44:16.631Z,13.80
2022-11-07T23:47:03.056Z,13.80
2022-11-07T23:49:48.484Z,13.80
2022-11-07T23:52:17.518Z,13.80
2022-11-07T23:55:03.636Z,13.70
2022-11-07T23:57:57.112Z,13.70
